sensor_id;sensor_type;location;lat;lon;timestamp;P1;durP1;ratioP1;P2;durP2;ratioP2
12348;SDS011;5974;42.710;27.258;2022-10-16T00:00:41;8.57;;;6.87;;
12348;SDS011;5974;42.710;27.258;2022-10-16T00:03:08;10.47;;;7.37;;
12348;SDS011;5974;42.710;27.258;2022-10-16T00:05:37;9.27;;;7.63;;
12348;SDS011;5974;42.710;27.258;2022-10-16T00:08:04;9.30;;;7.10;;
12348;SDS011;5974;42.710;27.258;2022-10-16T00:10:31;8.17;;;6.93;;
12348;SDS011;5974;42.710;27.258;2022-10-16T00:12:57;8.17;;;7.17;;
12348;SDS011;5974;42.710;27.258;2022-10-16T00:15:26;9.67;;;7.83;;
12348;SDS011;5974;42.710;27.258;2022-10-16T00:17:52;9.50;;;7.73;;
12348;SDS011;5974;42.710;27.258;2022-10-16T00:20:19;9.13;;;7.47;;
12348;SDS011;5974;42.710;27.258;2022-10-16T00:22:45;9.30;;;6.80;;
12348;SDS011;5974;42.710;27.258;2022-10-16T00:25:12;7.90;;;6.87;;
12348;SDS011;5974;42.710;27.258;2022-10-16T00:27:38;8.87;;;7.30;;
12348;SDS011;5974;42.710;27.258;2022-10-16T00:30:06;11.33;;;6.93;;
12348;SDS011;5974;42.710;27.258;2022-10-16T00:32:34;7.70;;;6.97;;
12348;SDS011;5974;42.710;27.258;2022-10-16T00:35:01;10.73;;;6.87;;
12348;SDS011;5974;42.710;27.258;2022-10-16T00:37:29;10.27;;;6.47;;
12348;SDS011;5974;42.710;27.258;2022-10-16T00:39:55;9.17;;;6.47;;
12348;SDS011;5974;42.710;27.258;2022-10-16T00:42:22;9.00;;;6.90;;
12348;SDS011;5974;42.710;27.258;2022-10-16T00:44:49;9.73;;;6.60;;
12348;SDS011;5974;42.710;27.258;2022-10-16T00:47:18;10.47;;;6.67;;
12348;SDS011;5974;42.710;27.258;2022-10-16T00:49:47;9.23;;;6.53;;
12348;SDS011;5974;42.710;27.258;2022-10-16T00:52:14;9.57;;;6.33;;
12348;SDS011;5974;42.710;27.258;2022-10-16T00:54:41;9.83;;;6.40;;
12348;SDS011;5974;42.710;27.258;2022-10-16T00:57:08;10.47;;;6.57;;
12348;SDS011;5974;42.710;27.258;2022-10-16T00:59:35;7.50;;;6.17;;
12348;SDS011;5974;42.710;27.258;2022-10-16T01:02:03;10.60;;;6.70;;
12348;SDS011;5974;42.710;27.258;2022-10-16T01:04:30;8.77;;;6.97;;
12348;SDS011;5974;42.710;27.258;2022-10-16T01:07:00;13.87;;;7.60;;
12348;SDS011;5974;42.710;27.258;2022-10-16T01:09:30;8.70;;;7.30;;
12348;SDS011;5974;42.710;27.258;2022-10-16T01:12:01;11.23;;;8.23;;
12348;SDS011;5974;42.710;27.258;2022-10-16T01:14:32;12.50;;;8.50;;
12348;SDS011;5974;42.710;27.258;2022-10-16T01:17:02;9.07;;;8.07;;
12348;SDS011;5974;42.710;27.258;2022-10-16T01:19:38;12.87;;;8.37;;
12348;SDS011;5974;42.710;27.258;2022-10-16T01:22:09;11.20;;;8.60;;
12348;SDS011;5974;42.710;27.258;2022-10-16T01:24:37;11.50;;;9.00;;
12348;SDS011;5974;42.710;27.258;2022-10-16T01:27:10;12.00;;;8.70;;
12348;SDS011;5974;42.710;27.258;2022-10-16T01:29:39;17.37;;;9.30;;
12348;SDS011;5974;42.710;27.258;2022-10-16T01:32:09;11.20;;;8.90;;
12348;SDS011;5974;42.710;27.258;2022-10-16T01:34:37;14.33;;;9.27;;
12348;SDS011;5974;42.710;27.258;2022-10-16T01:37:05;9.93;;;8.93;;
12348;SDS011;5974;42.710;27.258;2022-10-16T01:39:34;15.33;;;9.47;;
12348;SDS011;5974;42.710;27.258;2022-10-16T01:42:04;13.87;;;9.83;;
12348;SDS011;5974;42.710;27.258;2022-10-16T01:44:33;15.27;;;11.77;;
12348;SDS011;5974;42.710;27.258;2022-10-16T01:47:01;14.07;;;12.40;;
12348;SDS011;5974;42.710;27.258;2022-10-16T01:49:30;17.20;;;11.97;;
12348;SDS011;5974;42.710;27.258;2022-10-16T01:51:59;13.53;;;11.93;;
12348;SDS011;5974;42.710;27.258;2022-10-16T01:54:26;11.33;;;10.13;;
12348;SDS011;5974;42.710;27.258;2022-10-16T01:56:54;11.47;;;9.30;;
12348;SDS011;5974;42.710;27.258;2022-10-16T01:59:21;11.63;;;10.37;;
12348;SDS011;5974;42.710;27.258;2022-10-16T02:01:51;10.83;;;8.90;;
12348;SDS011;5974;42.710;27.258;2022-10-16T02:04:18;11.30;;;9.53;;
12348;SDS011;5974;42.710;27.258;2022-10-16T02:06:47;11.07;;;9.77;;
12348;SDS011;5974;42.710;27.258;2022-10-16T02:09:13;12.57;;;9.77;;
12348;SDS011;5974;42.710;27.258;2022-10-16T02:11:42;13.97;;;9.40;;
12348;SDS011;5974;42.710;27.258;2022-10-16T02:14:08;13.37;;;9.60;;
12348;SDS011;5974;42.710;27.258;2022-10-16T02:16:36;11.30;;;9.67;;
12348;SDS011;5974;42.710;27.258;2022-10-16T02:19:05;10.40;;;8.90;;
12348;SDS011;5974;42.710;27.258;2022-10-16T02:21:33;14.53;;;9.47;;
12348;SDS011;5974;42.710;27.258;2022-10-16T02:24:06;14.00;;;9.20;;
12348;SDS011;5974;42.710;27.258;2022-10-16T02:26:35;10.00;;;8.97;;
12348;SDS011;5974;42.710;27.258;2022-10-16T02:29:05;10.63;;;9.40;;
12348;SDS011;5974;42.710;27.258;2022-10-16T02:31:33;12.37;;;9.93;;
12348;SDS011;5974;42.710;27.258;2022-10-16T02:34:01;11.40;;;10.20;;
12348;SDS011;5974;42.710;27.258;2022-10-16T02:36:31;11.83;;;10.27;;
12348;SDS011;5974;42.710;27.258;2022-10-16T02:38:58;11.63;;;10.47;;
12348;SDS011;5974;42.710;27.258;2022-10-16T02:41:26;14.50;;;10.60;;
12348;SDS011;5974;42.710;27.258;2022-10-16T02:43:53;11.23;;;10.03;;
12348;SDS011;5974;42.710;27.258;2022-10-16T02:46:20;15.33;;;10.00;;
12348;SDS011;5974;42.710;27.258;2022-10-16T02:48:47;10.37;;;9.33;;
12348;SDS011;5974;42.710;27.258;2022-10-16T02:51:13;14.57;;;10.23;;
12348;SDS011;5974;42.710;27.258;2022-10-16T02:53:41;12.33;;;10.27;;
12348;SDS011;5974;42.710;27.258;2022-10-16T02:56:08;14.03;;;10.37;;
12348;SDS011;5974;42.710;27.258;2022-10-16T02:58:34;15.90;;;10.23;;
12348;SDS011;5974;42.710;27.258;2022-10-16T03:01:01;11.43;;;9.60;;
12348;SDS011;5974;42.710;27.258;2022-10-16T03:03:28;11.93;;;10.20;;
12348;SDS011;5974;42.710;27.258;2022-10-16T03:05:54;11.40;;;9.53;;
12348;SDS011;5974;42.710;27.258;2022-10-16T03:08:21;13.70;;;10.40;;
12348;SDS011;5974;42.710;27.258;2022-10-16T03:10:51;12.27;;;10.20;;
12348;SDS011;5974;42.710;27.258;2022-10-16T03:13:18;13.27;;;10.00;;
12348;SDS011;5974;42.710;27.258;2022-10-16T03:15:46;12.57;;;9.53;;
12348;SDS011;5974;42.710;27.258;2022-10-16T03:18:13;10.43;;;8.93;;
12348;SDS011;5974;42.710;27.258;2022-10-16T03:20:39;10.90;;;9.10;;
12348;SDS011;5974;42.710;27.258;2022-10-16T03:23:06;9.53;;;8.63;;
12348;SDS011;5974;42.710;27.258;2022-10-16T03:25:33;12.03;;;8.97;;
12348;SDS011;5974;42.710;27.258;2022-10-16T03:28:01;12.13;;;9.57;;
12348;SDS011;5974;42.710;27.258;2022-10-16T03:30:28;11.57;;;8.43;;
12348;SDS011;5974;42.710;27.258;2022-10-16T03:32:54;11.30;;;8.67;;
12348;SDS011;5974;42.710;27.258;2022-10-16T03:35:21;15.77;;;9.23;;
12348;SDS011;5974;42.710;27.258;2022-10-16T03:37:48;11.10;;;8.37;;
12348;SDS011;5974;42.710;27.258;2022-10-16T03:40:14;10.90;;;8.67;;
12348;SDS011;5974;42.710;27.258;2022-10-16T03:42:41;11.13;;;8.40;;
12348;SDS011;5974;42.710;27.258;2022-10-16T03:45:10;13.07;;;8.50;;
12348;SDS011;5974;42.710;27.258;2022-10-16T03:47:36;9.03;;;8.13;;
12348;SDS011;5974;42.710;27.258;2022-10-16T03:50:03;9.53;;;8.07;;
12348;SDS011;5974;42.710;27.258;2022-10-16T03:52:30;14.33;;;8.30;;
12348;SDS011;5974;42.710;27.258;2022-10-16T03:54:57;11.63;;;8.80;;
12348;SDS011;5974;42.710;27.258;2022-10-16T03:57:24;9.83;;;8.07;;
12348;SDS011;5974;42.710;27.258;2022-10-16T03:59:50;10.27;;;8.10;;
12348;SDS011;5974;42.710;27.258;2022-10-16T04:02:18;9.50;;;8.07;;
12348;SDS011;5974;42.710;27.258;2022-10-16T04:04:45;12.77;;;9.63;;
12348;SDS011;5974;42.710;27.258;2022-10-16T04:07:11;13.70;;;10.57;;
12348;SDS011;5974;42.710;27.258;2022-10-16T04:09:38;14.30;;;10.53;;
12348;SDS011;5974;42.710;27.258;2022-10-16T04:12:04;12.60;;;10.57;;
12348;SDS011;5974;42.710;27.258;2022-10-16T04:14:31;11.57;;;10.10;;
12348;SDS011;5974;42.710;27.258;2022-10-16T04:16:58;9.83;;;8.90;;
12348;SDS011;5974;42.710;27.258;2022-10-16T04:19:26;13.07;;;8.73;;
12348;SDS011;5974;42.710;27.258;2022-10-16T04:21:52;10.47;;;9.17;;
12348;SDS011;5974;42.710;27.258;2022-10-16T04:24:19;9.10;;;8.20;;
12348;SDS011;5974;42.710;27.258;2022-10-16T04:26:46;12.27;;;7.97;;
12348;SDS011;5974;42.710;27.258;2022-10-16T04:29:12;11.90;;;8.43;;
12348;SDS011;5974;42.710;27.258;2022-10-16T04:31:39;10.70;;;8.03;;
12348;SDS011;5974;42.710;27.258;2022-10-16T04:34:05;8.60;;;7.77;;
12348;SDS011;5974;42.710;27.258;2022-10-16T04:36:33;10.17;;;8.27;;
12348;SDS011;5974;42.710;27.258;2022-10-16T04:39:00;10.70;;;8.20;;
12348;SDS011;5974;42.710;27.258;2022-10-16T04:41:26;10.93;;;7.50;;
12348;SDS011;5974;42.710;27.258;2022-10-16T04:43:53;9.03;;;7.80;;
12348;SDS011;5974;42.710;27.258;2022-10-16T04:46:19;8.90;;;7.33;;
12348;SDS011;5974;42.710;27.258;2022-10-16T04:48:46;10.13;;;8.40;;
12348;SDS011;5974;42.710;27.258;2022-10-16T04:51:13;8.70;;;7.80;;
12348;SDS011;5974;42.710;27.258;2022-10-16T04:53:41;14.30;;;8.37;;
12348;SDS011;5974;42.710;27.258;2022-10-16T04:56:07;11.57;;;10.07;;
12348;SDS011;5974;42.710;27.258;2022-10-16T04:58:34;11.40;;;8.90;;
12348;SDS011;5974;42.710;27.258;2022-10-16T05:01:00;10.77;;;8.60;;
12348;SDS011;5974;42.710;27.258;2022-10-16T05:03:27;8.80;;;7.40;;
12348;SDS011;5974;42.710;27.258;2022-10-16T05:05:53;9.83;;;7.73;;
12348;SDS011;5974;42.710;27.258;2022-10-16T05:08:21;8.10;;;6.50;;
12348;SDS011;5974;42.710;27.258;2022-10-16T05:10:49;9.20;;;7.27;;
12348;SDS011;5974;42.710;27.258;2022-10-16T05:13:15;11.37;;;7.33;;
12348;SDS011;5974;42.710;27.258;2022-10-16T05:15:46;9.23;;;6.63;;
12348;SDS011;5974;42.710;27.258;2022-10-16T05:18:12;8.00;;;6.20;;
12348;SDS011;5974;42.710;27.258;2022-10-16T05:20:39;8.90;;;5.60;;
12348;SDS011;5974;42.710;27.258;2022-10-16T05:23:05;7.37;;;5.07;;
12348;SDS011;5974;42.710;27.258;2022-10-16T05:25:32;6.80;;;4.70;;
12348;SDS011;5974;42.710;27.258;2022-10-16T05:28:00;5.90;;;5.13;;
12348;SDS011;5974;42.710;27.258;2022-10-16T05:30:26;7.57;;;4.83;;
12348;SDS011;5974;42.710;27.258;2022-10-16T05:32:53;7.47;;;5.20;;
12348;SDS011;5974;42.710;27.258;2022-10-16T05:35:20;7.50;;;5.20;;
12348;SDS011;5974;42.710;27.258;2022-10-16T05:37:47;6.80;;;4.57;;
12348;SDS011;5974;42.710;27.258;2022-10-16T05:40:14;7.23;;;4.80;;
12348;SDS011;5974;42.710;27.258;2022-10-16T05:42:41;7.80;;;4.77;;
12348;SDS011;5974;42.710;27.258;2022-10-16T05:45:10;5.40;;;4.43;;
12348;SDS011;5974;42.710;27.258;2022-10-16T05:47:37;6.30;;;4.80;;
12348;SDS011;5974;42.710;27.258;2022-10-16T05:50:03;5.30;;;4.80;;
12348;SDS011;5974;42.710;27.258;2022-10-16T05:52:30;5.63;;;5.10;;
12348;SDS011;5974;42.710;27.258;2022-10-16T05:54:57;5.90;;;4.83;;
12348;SDS011;5974;42.710;27.258;2022-10-16T05:57:23;6.07;;;5.30;;
12348;SDS011;5974;42.710;27.258;2022-10-16T05:59:50;7.63;;;5.60;;
12348;SDS011;5974;42.710;27.258;2022-10-16T06:02:18;7.20;;;5.37;;
12348;SDS011;5974;42.710;27.258;2022-10-16T06:04:44;5.70;;;5.17;;
12348;SDS011;5974;42.710;27.258;2022-10-16T06:07:11;7.90;;;5.50;;
12348;SDS011;5974;42.710;27.258;2022-10-16T06:09:37;6.97;;;6.00;;
12348;SDS011;5974;42.710;27.258;2022-10-16T06:12:04;8.17;;;6.20;;
12348;SDS011;5974;42.710;27.258;2022-10-16T06:14:31;6.70;;;6.07;;
12348;SDS011;5974;42.710;27.258;2022-10-16T06:16:57;6.30;;;5.80;;
12348;SDS011;5974;42.710;27.258;2022-10-16T06:19:25;7.40;;;5.33;;
12348;SDS011;5974;42.710;27.258;2022-10-16T06:21:52;8.23;;;5.60;;
12348;SDS011;5974;42.710;27.258;2022-10-16T06:24:18;7.37;;;5.70;;
12348;SDS011;5974;42.710;27.258;2022-10-16T06:26:45;6.33;;;5.17;;
12348;SDS011;5974;42.710;27.258;2022-10-16T06:29:11;8.90;;;5.23;;
12348;SDS011;5974;42.710;27.258;2022-10-16T06:31:38;6.43;;;5.00;;
12348;SDS011;5974;42.710;27.258;2022-10-16T06:34:05;4.97;;;4.43;;
12348;SDS011;5974;42.710;27.258;2022-10-16T06:36:35;5.03;;;4.50;;
12348;SDS011;5974;42.710;27.258;2022-10-16T06:39:03;4.63;;;3.83;;
12348;SDS011;5974;42.710;27.258;2022-10-16T06:41:30;4.37;;;3.80;;
12348;SDS011;5974;42.710;27.258;2022-10-16T06:43:57;3.40;;;3.10;;
12348;SDS011;5974;42.710;27.258;2022-10-16T06:46:23;3.07;;;2.77;;
12348;SDS011;5974;42.710;27.258;2022-10-16T06:48:51;6.77;;;3.20;;
12348;SDS011;5974;42.710;27.258;2022-10-16T06:51:18;5.47;;;2.70;;
12348;SDS011;5974;42.710;27.258;2022-10-16T06:53:46;4.60;;;2.60;;
12348;SDS011;5974;42.710;27.258;2022-10-16T06:56:14;3.07;;;2.33;;
12348;SDS011;5974;42.710;27.258;2022-10-16T06:58:41;3.07;;;2.50;;
12348;SDS011;5974;42.710;27.258;2022-10-16T07:01:08;4.63;;;2.83;;
12348;SDS011;5974;42.710;27.258;2022-10-16T07:03:35;6.80;;;2.67;;
12348;SDS011;5974;42.710;27.258;2022-10-16T07:06:02;3.40;;;2.67;;
12348;SDS011;5974;42.710;27.258;2022-10-16T07:08:30;4.13;;;2.43;;
12348;SDS011;5974;42.710;27.258;2022-10-16T07:11:13;6.77;;;2.53;;
12348;SDS011;5974;42.710;27.258;2022-10-16T07:13:40;5.50;;;2.90;;
12348;SDS011;5974;42.710;27.258;2022-10-16T07:16:07;3.10;;;2.80;;
12348;SDS011;5974;42.710;27.258;2022-10-16T07:18:34;5.40;;;2.43;;
12348;SDS011;5974;42.710;27.258;2022-10-16T07:21:06;6.73;;;3.00;;
12348;SDS011;5974;42.710;27.258;2022-10-16T07:23:33;5.07;;;3.00;;
12348;SDS011;5974;42.710;27.258;2022-10-16T07:26:00;3.63;;;3.30;;
12348;SDS011;5974;42.710;27.258;2022-10-16T07:28:28;6.40;;;4.10;;
12348;SDS011;5974;42.710;27.258;2022-10-16T07:30:54;5.83;;;3.90;;
12348;SDS011;5974;42.710;27.258;2022-10-16T07:33:21;5.43;;;4.40;;
12348;SDS011;5974;42.710;27.258;2022-10-16T07:35:49;5.67;;;4.70;;
12348;SDS011;5974;42.710;27.258;2022-10-16T07:38:15;11.77;;;5.33;;
12348;SDS011;5974;42.710;27.258;2022-10-16T07:40:42;6.00;;;5.20;;
12348;SDS011;5974;42.710;27.258;2022-10-16T07:43:08;7.83;;;5.33;;
12348;SDS011;5974;42.710;27.258;2022-10-16T07:45:37;6.80;;;6.10;;
12348;SDS011;5974;42.710;27.258;2022-10-16T07:48:04;7.37;;;5.80;;
12348;SDS011;5974;42.710;27.258;2022-10-16T07:50:31;8.63;;;6.67;;
12348;SDS011;5974;42.710;27.258;2022-10-16T07:52:57;6.53;;;6.00;;
12348;SDS011;5974;42.710;27.258;2022-10-16T07:55:24;7.93;;;6.17;;
12348;SDS011;5974;42.710;27.258;2022-10-16T07:57:51;7.53;;;5.77;;
12348;SDS011;5974;42.710;27.258;2022-10-16T08:00:17;14.20;;;6.60;;
12348;SDS011;5974;42.710;27.258;2022-10-16T08:02:45;9.23;;;6.30;;
12348;SDS011;5974;42.710;27.258;2022-10-16T08:05:12;7.17;;;6.50;;
12348;SDS011;5974;42.710;27.258;2022-10-16T08:07:38;6.97;;;5.60;;
12348;SDS011;5974;42.710;27.258;2022-10-16T08:10:05;7.33;;;6.07;;
12348;SDS011;5974;42.710;27.258;2022-10-16T08:12:32;6.47;;;5.73;;
12348;SDS011;5974;42.710;27.258;2022-10-16T08:14:58;7.60;;;6.40;;
12348;SDS011;5974;42.710;27.258;2022-10-16T08:17:25;7.03;;;6.13;;
12348;SDS011;5974;42.710;27.258;2022-10-16T08:19:53;9.17;;;6.10;;
12348;SDS011;5974;42.710;27.258;2022-10-16T08:22:19;6.03;;;5.30;;
12348;SDS011;5974;42.710;27.258;2022-10-16T08:24:46;8.03;;;5.33;;
12348;SDS011;5974;42.710;27.258;2022-10-16T08:27:12;5.77;;;5.23;;
12348;SDS011;5974;42.710;27.258;2022-10-16T08:29:39;5.77;;;4.90;;
12348;SDS011;5974;42.710;27.258;2022-10-16T08:32:06;7.93;;;5.97;;
12348;SDS011;5974;42.710;27.258;2022-10-16T08:34:32;6.40;;;5.80;;
12348;SDS011;5974;42.710;27.258;2022-10-16T08:37:00;7.90;;;5.77;;
12348;SDS011;5974;42.710;27.258;2022-10-16T08:39:27;6.60;;;5.53;;
12348;SDS011;5974;42.710;27.258;2022-10-16T08:42:05;7.33;;;4.70;;
12348;SDS011;5974;42.710;27.258;2022-10-16T08:44:50;5.50;;;4.60;;
12348;SDS011;5974;42.710;27.258;2022-10-16T08:47:22;7.80;;;4.93;;
12348;SDS011;5974;42.710;27.258;2022-10-16T08:49:53;4.73;;;4.30;;
12348;SDS011;5974;42.710;27.258;2022-10-16T08:52:23;6.33;;;4.47;;
12348;SDS011;5974;42.710;27.258;2022-10-16T08:54:55;6.77;;;4.23;;
12348;SDS011;5974;42.710;27.258;2022-10-16T08:57:22;6.27;;;4.30;;
12348;SDS011;5974;42.710;27.258;2022-10-16T08:59:50;5.97;;;4.40;;
12348;SDS011;5974;42.710;27.258;2022-10-16T09:02:21;5.17;;;4.13;;
12348;SDS011;5974;42.710;27.258;2022-10-16T09:04:54;4.87;;;3.73;;
12348;SDS011;5974;42.710;27.258;2022-10-16T09:07:25;9.37;;;3.90;;
12348;SDS011;5974;42.710;27.258;2022-10-16T09:10:01;4.60;;;4.20;;
12348;SDS011;5974;42.710;27.258;2022-10-16T09:12:35;4.90;;;4.37;;
12348;SDS011;5974;42.710;27.258;2022-10-16T09:15:07;7.70;;;4.57;;
12348;SDS011;5974;42.710;27.258;2022-10-16T09:17:42;4.77;;;3.93;;
12348;SDS011;5974;42.710;27.258;2022-10-16T09:20:20;7.10;;;4.07;;
12348;SDS011;5974;42.710;27.258;2022-10-16T09:22:53;5.70;;;4.40;;
12348;SDS011;5974;42.710;27.258;2022-10-16T09:25:21;5.63;;;4.73;;
12348;SDS011;5974;42.710;27.258;2022-10-16T09:27:48;4.70;;;4.30;;
12348;SDS011;5974;42.710;27.258;2022-10-16T09:30:16;5.27;;;3.57;;
12348;SDS011;5974;42.710;27.258;2022-10-16T09:32:43;4.87;;;4.17;;
12348;SDS011;5974;42.710;27.258;2022-10-16T09:35:11;6.90;;;4.10;;
12348;SDS011;5974;42.710;27.258;2022-10-16T09:37:39;6.20;;;4.30;;
12348;SDS011;5974;42.710;27.258;2022-10-16T09:40:11;6.43;;;4.20;;
12348;SDS011;5974;42.710;27.258;2022-10-16T09:42:38;4.73;;;4.30;;
12348;SDS011;5974;42.710;27.258;2022-10-16T09:45:05;4.60;;;4.20;;
12348;SDS011;5974;42.710;27.258;2022-10-16T09:47:35;4.87;;;4.40;;
12348;SDS011;5974;42.710;27.258;2022-10-16T09:50:04;6.37;;;4.70;;
12348;SDS011;5974;42.710;27.258;2022-10-16T09:52:32;4.97;;;4.50;;
12348;SDS011;5974;42.710;27.258;2022-10-16T09:55:00;4.53;;;4.10;;
12348;SDS011;5974;42.710;27.258;2022-10-16T09:57:28;5.30;;;4.80;;
12348;SDS011;5974;42.710;27.258;2022-10-16T09:59:56;8.43;;;5.30;;
12348;SDS011;5974;42.710;27.258;2022-10-16T10:02:25;7.50;;;4.60;;
12348;SDS011;5974;42.710;27.258;2022-10-16T10:04:53;4.87;;;4.37;;
12348;SDS011;5974;42.710;27.258;2022-10-16T10:07:23;13.10;;;5.67;;
12348;SDS011;5974;42.710;27.258;2022-10-16T10:09:51;6.80;;;5.10;;
12348;SDS011;5974;42.710;27.258;2022-10-16T10:12:19;7.90;;;5.53;;
12348;SDS011;5974;42.710;27.258;2022-10-16T10:14:48;5.80;;;5.20;;
12348;SDS011;5974;42.710;27.258;2022-10-16T10:17:16;6.13;;;5.53;;
12348;SDS011;5974;42.710;27.258;2022-10-16T10:19:45;9.20;;;5.50;;
12348;SDS011;5974;42.710;27.258;2022-10-16T10:22:15;7.00;;;6.30;;
12348;SDS011;5974;42.710;27.258;2022-10-16T10:24:43;7.17;;;5.77;;
12348;SDS011;5974;42.710;27.258;2022-10-16T10:27:10;6.70;;;6.10;;
12348;SDS011;5974;42.710;27.258;2022-10-16T10:29:44;16.43;;;11.90;;
12348;SDS011;5974;42.710;27.258;2022-10-16T10:32:18;7.20;;;6.10;;
12348;SDS011;5974;42.710;27.258;2022-10-16T10:34:53;7.07;;;6.37;;
12348;SDS011;5974;42.710;27.258;2022-10-16T10:37:27;7.87;;;6.13;;
12348;SDS011;5974;42.710;27.258;2022-10-16T10:39:57;7.53;;;6.30;;
12348;SDS011;5974;42.710;27.258;2022-10-16T10:42:26;7.53;;;6.73;;
12348;SDS011;5974;42.710;27.258;2022-10-16T10:44:59;7.37;;;6.67;;
12348;SDS011;5974;42.710;27.258;2022-10-16T10:47:31;10.50;;;6.83;;
12348;SDS011;5974;42.710;27.258;2022-10-16T10:50:04;7.83;;;7.10;;
12348;SDS011;5974;42.710;27.258;2022-10-16T10:52:34;8.83;;;7.07;;
12348;SDS011;5974;42.710;27.258;2022-10-16T10:55:09;7.67;;;5.10;;
12348;SDS011;5974;42.710;27.258;2022-10-16T10:57:38;4.30;;;3.80;;
12348;SDS011;5974;42.710;27.258;2022-10-16T11:00:10;8.73;;;3.80;;
12348;SDS011;5974;42.710;27.258;2022-10-16T11:02:44;3.00;;;2.80;;
12348;SDS011;5974;42.710;27.258;2022-10-16T11:05:18;4.53;;;4.10;;
12348;SDS011;5974;42.710;27.258;2022-10-16T11:07:49;4.77;;;4.20;;
12348;SDS011;5974;42.710;27.258;2022-10-16T11:10:17;13.20;;;8.80;;
12348;SDS011;5974;42.710;27.258;2022-10-16T11:12:45;8.20;;;3.83;;
12348;SDS011;5974;42.710;27.258;2022-10-16T11:15:14;2.60;;;2.40;;
12348;SDS011;5974;42.710;27.258;2022-10-16T11:17:44;3.83;;;2.43;;
12348;SDS011;5974;42.710;27.258;2022-10-16T11:20:13;4.57;;;3.13;;
12348;SDS011;5974;42.710;27.258;2022-10-16T11:22:43;4.47;;;2.50;;
12348;SDS011;5974;42.710;27.258;2022-10-16T11:25:13;3.87;;;2.63;;
12348;SDS011;5974;42.710;27.258;2022-10-16T11:27:40;2.50;;;2.30;;
12348;SDS011;5974;42.710;27.258;2022-10-16T11:30:12;2.50;;;2.30;;
12348;SDS011;5974;42.710;27.258;2022-10-16T11:32:42;3.73;;;2.60;;
12348;SDS011;5974;42.710;27.258;2022-10-16T11:35:14;3.43;;;2.43;;
12348;SDS011;5974;42.710;27.258;2022-10-16T11:37:43;3.53;;;2.10;;
12348;SDS011;5974;42.710;27.258;2022-10-16T11:40:16;5.57;;;2.33;;
12348;SDS011;5974;42.710;27.258;2022-10-16T11:42:46;3.47;;;2.23;;
12348;SDS011;5974;42.710;27.258;2022-10-16T11:45:21;5.13;;;2.30;;
12348;SDS011;5974;42.710;27.258;2022-10-16T11:47:51;2.57;;;2.47;;
12348;SDS011;5974;42.710;27.258;2022-10-16T11:50:22;5.00;;;2.33;;
12348;SDS011;5974;42.710;27.258;2022-10-16T11:52:51;4.10;;;2.10;;
12348;SDS011;5974;42.710;27.258;2022-10-16T11:55:20;3.60;;;2.43;;
12348;SDS011;5974;42.710;27.258;2022-10-16T11:57:47;2.70;;;2.20;;
12348;SDS011;5974;42.710;27.258;2022-10-16T12:00:18;2.60;;;2.40;;
12348;SDS011;5974;42.710;27.258;2022-10-16T12:02:49;4.80;;;2.13;;
12348;SDS011;5974;42.710;27.258;2022-10-16T12:05:18;3.73;;;2.30;;
12348;SDS011;5974;42.710;27.258;2022-10-16T12:07:50;3.60;;;2.20;;
12348;SDS011;5974;42.710;27.258;2022-10-16T12:10:22;4.00;;;2.63;;
12348;SDS011;5974;42.710;27.258;2022-10-16T12:12:48;3.67;;;2.23;;
12348;SDS011;5974;42.710;27.258;2022-10-16T12:15:19;5.70;;;2.10;;
12348;SDS011;5974;42.710;27.258;2022-10-16T12:17:46;3.07;;;2.10;;
12348;SDS011;5974;42.710;27.258;2022-10-16T12:20:24;2.20;;;2.00;;
12348;SDS011;5974;42.710;27.258;2022-10-16T12:22:53;2.50;;;2.00;;
12348;SDS011;5974;42.710;27.258;2022-10-16T12:25:21;3.77;;;2.00;;
12348;SDS011;5974;42.710;27.258;2022-10-16T12:27:53;1.90;;;1.70;;
12348;SDS011;5974;42.710;27.258;2022-10-16T12:30:20;5.43;;;2.23;;
12348;SDS011;5974;42.710;27.258;2022-10-16T12:32:52;2.37;;;1.90;;
12348;SDS011;5974;42.710;27.258;2022-10-16T12:35:20;1.60;;;1.50;;
12348;SDS011;5974;42.710;27.258;2022-10-16T12:37:48;2.47;;;1.70;;
12348;SDS011;5974;42.710;27.258;2022-10-16T12:40:23;2.77;;;1.90;;
12348;SDS011;5974;42.710;27.258;2022-10-16T12:42:51;3.23;;;1.80;;
12348;SDS011;5974;42.710;27.258;2022-10-16T12:45:24;2.60;;;2.00;;
12348;SDS011;5974;42.710;27.258;2022-10-16T12:47:52;2.13;;;1.80;;
12348;SDS011;5974;42.710;27.258;2022-10-16T12:50:26;4.23;;;1.83;;
12348;SDS011;5974;42.710;27.258;2022-10-16T12:52:53;1.97;;;1.50;;
12348;SDS011;5974;42.710;27.258;2022-10-16T12:55:21;3.20;;;1.97;;
12348;SDS011;5974;42.710;27.258;2022-10-16T13:00:38;4.17;;;1.70;;
12348;SDS011;5974;42.710;27.258;2022-10-16T13:05:56;5.13;;;1.73;;
12348;SDS011;5974;42.710;27.258;2022-10-16T13:08:29;4.17;;;1.93;;
12348;SDS011;5974;42.710;27.258;2022-10-16T13:11:02;2.70;;;1.80;;
12348;SDS011;5974;42.710;27.258;2022-10-16T13:13:49;3.83;;;1.60;;
12348;SDS011;5974;42.710;27.258;2022-10-16T13:16:21;5.50;;;2.17;;
12348;SDS011;5974;42.710;27.258;2022-10-16T13:18:53;5.80;;;1.80;;
12348;SDS011;5974;42.710;27.258;2022-10-16T13:21:26;1.80;;;1.67;;
12348;SDS011;5974;42.710;27.258;2022-10-16T13:23:57;4.37;;;1.90;;
12348;SDS011;5974;42.710;27.258;2022-10-16T13:26:30;6.53;;;2.17;;
12348;SDS011;5974;42.710;27.258;2022-10-16T13:28:58;2.10;;;1.53;;
12348;SDS011;5974;42.710;27.258;2022-10-16T13:31:25;4.40;;;1.80;;
12348;SDS011;5974;42.710;27.258;2022-10-16T13:33:52;3.03;;;1.50;;
12348;SDS011;5974;42.710;27.258;2022-10-16T13:36:21;4.53;;;1.57;;
12348;SDS011;5974;42.710;27.258;2022-10-16T13:38:48;4.40;;;1.77;;
12348;SDS011;5974;42.710;27.258;2022-10-16T13:41:15;4.00;;;1.60;;
12348;SDS011;5974;42.710;27.258;2022-10-16T13:43:44;2.90;;;1.80;;
12348;SDS011;5974;42.710;27.258;2022-10-16T13:46:12;3.37;;;1.97;;
12348;SDS011;5974;42.710;27.258;2022-10-16T13:48:39;1.77;;;1.57;;
12348;SDS011;5974;42.710;27.258;2022-10-16T13:51:10;6.33;;;1.77;;
12348;SDS011;5974;42.710;27.258;2022-10-16T13:53:38;5.27;;;1.50;;
12348;SDS011;5974;42.710;27.258;2022-10-16T13:56:06;2.80;;;1.60;;
12348;SDS011;5974;42.710;27.258;2022-10-16T13:58:34;3.90;;;1.60;;
12348;SDS011;5974;42.710;27.258;2022-10-16T14:01:03;3.97;;;1.80;;
12348;SDS011;5974;42.710;27.258;2022-10-16T14:03:30;7.90;;;1.77;;
12348;SDS011;5974;42.710;27.258;2022-10-16T14:05:58;3.77;;;1.53;;
12348;SDS011;5974;42.710;27.258;2022-10-16T14:08:25;2.47;;;1.77;;
12348;SDS011;5974;42.710;27.258;2022-10-16T14:10:53;1.60;;;1.50;;
12348;SDS011;5974;42.710;27.258;2022-10-16T14:13:23;2.50;;;1.87;;
12348;SDS011;5974;42.710;27.258;2022-10-16T14:15:52;2.47;;;1.60;;
12348;SDS011;5974;42.710;27.258;2022-10-16T14:18:21;2.03;;;1.53;;
12348;SDS011;5974;42.710;27.258;2022-10-16T14:20:49;2.53;;;1.60;;
12348;SDS011;5974;42.710;27.258;2022-10-16T14:23:20;2.20;;;1.60;;
12348;SDS011;5974;42.710;27.258;2022-10-16T14:25:47;5.67;;;1.90;;
12348;SDS011;5974;42.710;27.258;2022-10-16T14:28:15;2.93;;;1.80;;
12348;SDS011;5974;42.710;27.258;2022-10-16T14:30:48;5.47;;;2.07;;
12348;SDS011;5974;42.710;27.258;2022-10-16T14:33:21;5.13;;;2.13;;
12348;SDS011;5974;42.710;27.258;2022-10-16T14:35:57;2.73;;;1.60;;
12348;SDS011;5974;42.710;27.258;2022-10-16T14:38:25;4.33;;;1.70;;
12348;SDS011;5974;42.710;27.258;2022-10-16T14:40:51;4.87;;;1.67;;
12348;SDS011;5974;42.710;27.258;2022-10-16T14:43:20;2.40;;;1.93;;
12348;SDS011;5974;42.710;27.258;2022-10-16T14:45:49;2.17;;;1.70;;
12348;SDS011;5974;42.710;27.258;2022-10-16T14:48:17;4.17;;;2.07;;
12348;SDS011;5974;42.710;27.258;2022-10-16T14:50:46;3.90;;;1.60;;
12348;SDS011;5974;42.710;27.258;2022-10-16T14:53:13;5.00;;;2.13;;
12348;SDS011;5974;42.710;27.258;2022-10-16T14:55:39;5.80;;;1.90;;